createdAt,value
2018-09-10T00:01:55.047Z,22.1
2018-09-10T00:11:57.408Z,22.1
2018-09-10T00:21:59.017Z,22.1
2018-09-10T00:32:01.026Z,22.1
2018-09-10T00:42:03.244Z,22.1
2018-09-10T00:52:04.995Z,22.1
2018-09-10T01:02:06.892Z,22.1
2018-09-10T01:12:08.681Z,22.1
2018-09-10T01:22:10.650Z,22
2018-09-10T01:32:12.599Z,22
2018-09-10T01:42:14.294Z,22
2018-09-10T01:52:16.478Z,22
2018-09-10T02:02:18.347Z,22
2018-09-10T02:12:19.802Z,22
2018-09-10T02:22:21.745Z,22
2018-09-10T02:32:23.675Z,22
2018-09-10T02:42:25.551Z,21.9
2018-09-10T02:52:27.749Z,21.9
2018-09-10T03:02:29.650Z,21.9
2018-09-10T03:12:31.359Z,21.9
2018-09-10T03:22:33.204Z,21.9
2018-09-10T03:32:35.234Z,21.9
2018-09-10T03:42:37.341Z,21.9
2018-09-10T03:52:39.236Z,21.9
2018-09-10T04:02:41.352Z,21.9
2018-09-10T04:12:43.314Z,21.8
2018-09-10T04:22:44.733Z,21.8
2018-09-10T04:32:46.526Z,21.8
2018-09-10T04:42:48.404Z,21.8
2018-09-10T04:52:50.561Z,21.8
2018-09-10T05:02:52.426Z,21.8
2018-09-10T05:12:54.097Z,21.8
2018-09-10T05:22:55.733Z,21.8
2018-09-10T05:32:57.944Z,21.8
2018-09-10T05:43:00.402Z,21.8
2018-09-10T05:53:02.976Z,21.7
2018-09-10T06:03:05.383Z,21.8
2018-09-10T06:13:08.799Z,21.8
2018-09-10T06:23:10.875Z,22.2
2018-09-10T06:33:12.966Z,22.4
2018-09-10T06:43:14.802Z,22.5
2018-09-10T06:53:16.588Z,22.4
2018-09-10T07:03:18.380Z,22.6
2018-09-10T07:13:20.343Z,22.7
2018-09-10T07:23:22.738Z,23
2018-09-10T07:33:24.913Z,23
2018-09-10T07:43:26.612Z,23.1
2018-09-10T07:53:28.543Z,23.1
2018-09-10T08:03:30.307Z,23.1
2018-09-10T08:13:32.595Z,23.2
2018-09-10T08:23:34.565Z,23.5
2018-09-10T08:33:36.347Z,23.6
2018-09-10T08:43:38.390Z,23.7
2018-09-10T08:53:40.559Z,23.8
2018-09-10T09:03:42.865Z,23.9
2018-09-10T09:13:44.818Z,23.9
2018-09-10T09:23:46.727Z,23.9
2018-09-10T09:33:48.275Z,23.9
2018-09-10T09:43:50.914Z,24
2018-09-10T09:53:52.643Z,24
2018-09-10T10:03:54.400Z,24.1
2018-09-10T10:13:56.186Z,24.1
2018-09-10T10:23:57.792Z,24.2
2018-09-10T10:33:59.514Z,24.1
2018-09-10T10:44:01.151Z,24.2
2018-09-10T10:54:03.042Z,24.1
2018-09-10T11:04:05.023Z,24.2
2018-09-10T11:14:06.997Z,24.2
2018-09-10T11:24:08.656Z,24.2
2018-09-10T11:34:10.742Z,24.2
2018-09-10T11:44:12.608Z,24.2
2018-09-10T11:54:14.151Z,24.2
2018-09-10T12:04:16.051Z,24.2
2018-09-10T12:14:17.771Z,24.2
2018-09-10T12:24:19.490Z,24.2
2018-09-10T12:34:21.314Z,24.2
2018-09-10T12:44:23.170Z,24.2
2018-09-10T12:54:25.249Z,24.2
2018-09-10T13:04:27.492Z,24.2
2018-09-10T13:14:29.311Z,24.2
2018-09-10T13:24:31.334Z,24.5
2018-09-10T13:34:32.984Z,24.6
2018-09-10T13:44:34.733Z,24.8
2018-09-10T13:54:37.429Z,24.8
2018-09-10T14:04:39.298Z,24.9
2018-09-10T14:14:41.222Z,25
2018-09-10T14:24:43.076Z,24.7
2018-09-10T14:34:45.107Z,24.5
2018-09-10T14:44:46.700Z,24.4
2018-09-10T14:54:48.357Z,24.3
2018-09-10T15:04:49.816Z,24.2
2018-09-10T15:14:51.595Z,24.1
2018-09-10T15:24:53.524Z,24
2018-09-10T15:34:56.270Z,24
2018-09-10T15:44:57.770Z,24
2018-09-10T15:54:59.836Z,23.9
2018-09-10T16:05:01.662Z,23.9
2018-09-10T16:15:04.113Z,23.9
2018-09-10T16:25:06.009Z,23.9
2018-09-10T16:35:07.941Z,23.8
2018-09-10T16:45:09.919Z,23.8
2018-09-10T16:55:12.007Z,23.8
2018-09-10T17:05:14.320Z,23.8
2018-09-10T17:15:16.053Z,23.8
2018-09-10T17:25:18.083Z,23.8
2018-09-10T17:35:19.976Z,23.8
2018-09-10T17:45:21.640Z,23.8
2018-09-10T17:55:23.417Z,23.8
2018-09-10T18:15:45.268Z,23.9
2018-09-10T18:25:47.206Z,23.8
2018-09-10T18:35:48.973Z,23.8
2018-09-10T18:45:50.552Z,23.9
2018-09-10T18:55:52.768Z,23.9
2018-09-10T19:05:54.994Z,23.9
2018-09-10T19:15:56.988Z,23.8
2018-09-10T19:25:58.764Z,23.7
2018-09-10T19:36:00.507Z,23.7
2018-09-10T19:46:02.097Z,23.6
2018-09-10T19:56:04.469Z,23.6
2018-09-10T20:06:05.909Z,23.5
2018-09-10T20:16:07.680Z,23.5
2018-09-10T20:26:09.633Z,23.4
2018-09-10T20:36:11.683Z,23.4
2018-09-10T20:46:13.733Z,23.4
2018-09-10T20:56:15.724Z,23.3
2018-09-10T21:06:17.598Z,23.3
2018-09-10T21:16:19.491Z,23.3
2018-09-10T21:26:21.365Z,23.2
2018-09-10T21:36:23.749Z,23.2
2018-09-10T21:46:25.769Z,23.1
2018-09-10T21:56:27.961Z,23.1
2018-09-10T22:06:29.617Z,23.1
2018-09-10T22:16:31.329Z,23.1
2018-09-10T22:26:33.481Z,23
2018-09-10T22:36:35.569Z,23
2018-09-10T22:46:36.821Z,23
2018-09-10T22:56:38.859Z,22.9
2018-09-10T23:06:41.087Z,22.9
2018-09-10T23:16:43.015Z,22.9
2018-09-10T23:26:44.838Z,22.9
2018-09-10T23:36:46.671Z,22.9
2018-09-10T23:46:48.955Z,22.8
2018-09-10T23:56:50.826Z,22.8
